Última Atualização: 07:20 - 28/02/2024

Estação Hora Leitura 15 min 1 h 4 h 24 h 96 h No Mês
1 Vidigal 07:15 0,0 0,0 0,0 5,2 5,6 38,0
2 Urca 07:15 0,0 0,0 0,0 1,8 1,8 59,4
3 Rocinha 07:15 0,0 0,0 0,0 4,2 4,2 51,4
4 Tijuca 07:15 0,0 0,0 0,2 2,4 2,4 71,4
5 Santa Teresa 07:15 0,0 0,0 0,0 0,0 0,8 55,2
6 Copacabana 07:15 0,0 0,0 0,0 4,0 4,6 33,4
7 Grajaú 07:15 0,0 0,0 0,0 3,4 3,4 80,4
8 Ilha do Governador 07:15 0,0 0,0 0,0 0,0 0,0 96,2
9 Penha 07:15 0,0 0,0 0,0 0,0 0,4 110,8
10 Madureira 07:15 0,0 0,0 0,0 0,2 0,2 65,8
11 Irajá 07:15 0,0 0,0 0,0 0,0 0,0 61,8
12 Bangu 07:15 0,0 0,0 0,2 0,4 0,8 193,2
13 Piedade 07:15 0,0 0,0 0,0 2,8 2,8 67,2
14 Jacarepaguá/Tanque 07:15 0,0 0,0 0,0 2,4 2,4 111,0
15 Saúde 07:15 0,0 0,0 0,0 0,8 0,8 66,4
16 Jardim Botânico 07:15 0,0 0,0 0,0 0,8 0,8 43,2
17 Barra/Barrinha 07:15 0,0 0,0 0,0 13,4 17,8 69,8
18 Jacarepaguá/Cidade de Deus 07:15 0,0 0,0 0,0 0,6 0,6 100,4
19 Barra/Riocentro 07:15 0,0 0,0 0,0 2,4 2,4 109,4
20 Guaratiba 07:15 0,0 0,0 0,0 3,0 3,6 96,4
21 Est. Grajaú/Jacarepaguá 07:15 0,0 0,0 0,0 1,0 1,2 88,4
22 Santa Cruz 07:15 0,0 0,0 0,0 0,6 0,6 114,0
23 Grande Méier 07:15 0,0 0,0 0,0 1,8 3,2 107,2
24 Anchieta 07:15 0,0 0,0 0,0 0,0 9,4 131,6
25 Grota Funda 07:15 0,0 0,0 0,0 4,2 4,2 138,2
26 Campo Grande 07:15 0,0 0,0 0,0 0,8 0,8 136,6
27 Sepetiba 07:15 0,0 0,0 0,0 5,0 5,0 126,6
28 Alto da Boa Vista 07:15 0,0 0,0 0,2 1,6 1,6 74,8
29 Av. Brasil/Mendanha 07:15 0,0 0,0 0,0 0,0 0,0 236,2
30 Recreio dos Bandeirantes 07:15 0,0 0,0 0,0 6,4 6,4 154,8
31 Laranjeiras 07:15 0,0 0,0 0,0 2,2 2,6 57,6
32 São Cristóvão 07:15 0,0 0,0 0,0 1,2 1,2 87,8
33 Tijuca/Muda 07:15 0,0 0,0 0,0 3,2 3,2 74,2
Dados Meteorológicos
Estação Hora Direção Vento (graus) Velocidade Vento (Km/h) Temperatura (celsius) Pressão (hPa) Umidade (%)
1 Vidigal 07:15 360,0 2,9 - - -
11 Irajá 07:15 - - 28,8 - 85,1
16 Jardim Botânico 07:15 - - 28,1 - 99,5
19 Barra/Riocentro 07:15 - - 29,0 - 88,9
20 Guaratiba 07:15 357,3 0,4 26,0 1004,7 100,0
22 Santa Cruz 07:15 - - 28,4 - 92,8
28 Alto da Boa Vista 07:15 - - 24,7 - 99,6
32 São Cristóvão 07:15 - - 27,2 1004,8 96,6